Adams, TN

12:01 PM CST on November 28, 2014 (GMT -0600)
JML Farms | Change Station
CLOSE
Current Station
Personal Weather Station
Location: Springfield, TN
Elevation: 689 ft
Nearby Weather Stations

Elev 689 ft 36.47 °N, 86.97 °W | Updated 2 minutes ago

Clear
Clear
40.3 °F
Feels Like 36 °F
N
6.0
Wind Variable Wind from SE
Gusts 9.0 mph

Today
High -- | Low -- °F
--% Chance of Precip.
Yesterday
High -- | Low -- °F
Precip. -- in
6:39 AM 4:33 PM
Waxing Crescent, 42% visible
Pressure 30.31 in
Visibility 10.0 miles
Clouds Clear
Windchill 36 °F
Dew Point 28 °F
Humidity 62%
Rainfall 0.00 in
Snow Depth Not available.
UV 3 out of 12
Pollen .10 out of 12
Air Quality Not available.
Flu Activity Not available.
METAR KHOP 281758Z AUTO 16007KT 10SM CLR 06/M04 A3029 RMK AO2 PRESFR SLP263 T00551037 10055 21033 57039 $

More Conditions Fewer Conditions

Pressure 30.31 in
Visibility 10.0 miles
Clouds Clear
Windchill 36 °F
Dew Point 28 °F
Humidity 62%
Rainfall 0.00 in
Snow Depth Not available.
UV 3 out of 12
Pollen .10 out of 12
Air Quality Not available.
Flu Activity Not available.
METAR KHOP 281758Z AUTO 16007KT 10SM CLR 06/M04 A3029 RMK AO2 PRESFR SLP263 T00551037 10055 21033 57039 $

More Conditions Fewer Conditions

10-Day Weather Forecast

Almanac

Astronomy

Nov. 28, 2014 Rise Set
Actual Time
Civil Twilight
Nautical Twilight
Astronomical Twilight
Moon
Length of Visible Light
Length of Day
Tomorrow will be .
, % of the Moon is Illuminated

Today's Extremes

State Highs State Lows

Community

WunderPhotos

Upload Photos

1,774,246 photos uploaded!

WunderBlogs® & News

Nearby

Air Quality

  Air Quality AQ Index Pollutant
Not available.

Snow Depth

Station Depth Elevation

Earthquake Activity

City Distance Mag. Time & Date
Minimum magnitude displayed is 2.5.

Coastal Water Temperatures

Place Temperature

Nearby Weather Stations